createdAt,value
2023-03-23T00:00:02.643Z,0.0
2023-03-23T00:06:21.777Z,0.0
2023-03-23T00:12:40.617Z,0.0
2023-03-23T00:18:58.804Z,0.0
2023-03-23T00:49:10.716Z,0.0
2023-03-23T00:55:30.455Z,0.0
2023-03-23T01:01:49.398Z,0.0
2023-03-23T01:08:08.368Z,0.0
2023-03-23T01:16:17.258Z,0.0
2023-03-23T01:22:36.325Z,0.0
2023-03-23T01:34:14.064Z,0.0
2023-03-23T01:47:06.296Z,0.0
2023-03-23T01:57:49.293Z,0.0
2023-03-23T02:16:37.515Z,0.0
2023-03-23T02:22:56.623Z,0.0
2023-03-23T02:29:15.584Z,0.0
2023-03-23T02:35:36.610Z,0.0
2023-03-23T02:43:21.469Z,0.0
2023-03-23T02:51:25.687Z,0.0
2023-03-23T02:57:44.867Z,0.0
2023-03-23T03:04:03.744Z,0.0
2023-03-23T03:10:23.650Z,0.0
2023-03-23T03:16:42.821Z,0.0
2023-03-23T03:23:01.606Z,0.0
2023-03-23T03:29:22.887Z,0.0
2023-03-23T03:35:42.349Z,0.0
2023-03-23T03:48:08.544Z,0.0
2023-03-23T03:54:27.691Z,0.0
2023-03-23T04:05:10.403Z,0.0
2023-03-23T04:11:32.675Z,0.0
2023-03-23T04:17:53.451Z,0.0
2023-03-23T04:24:23.161Z,0.0
2023-03-23T04:31:15.106Z,0.0
2023-03-23T04:37:38.761Z,0.0
2023-03-23T04:44:01.660Z,0.0
2023-03-23T04:54:57.192Z,0.0
2023-03-23T05:01:16.802Z,0.0
2023-03-23T05:07:36.642Z,0.0
2023-03-23T05:13:55.634Z,0.0
2023-03-23T05:24:48.559Z,0.0
2023-03-23T05:31:07.213Z,0.0
2023-03-23T05:37:25.974Z,0.0
2023-03-23T05:43:44.161Z,0.0
2023-03-23T05:50:03.591Z,0.652341137123746
2023-03-23T05:58:30.160Z,5.923277591973246
2023-03-23T06:19:23.589Z,4.321304347826086
2023-03-23T06:27:02.270Z,15.293010033444817
2023-03-23T06:33:23.798Z,24.088762541806023
2023-03-23T06:39:44.788Z,30.73481605351169
2023-03-23T06:46:05.806Z,30.587257525083594
2023-03-23T06:53:28.335Z,25.206187290969897
2023-03-23T06:59:48.908Z,11.767491638795985
2023-03-23T07:08:32.798Z,34.637892976588645
2023-03-23T07:17:34.553Z,50.04635451505018
2023-03-23T07:23:55.335Z,31.036421404682272
2023-03-23T07:30:50.694Z,10.09518394648831
2023-03-23T07:37:11.851Z,7.047859531772575
2023-03-23T07:43:32.837Z,32.967792642140466
2023-03-23T07:51:44.501Z,24.202173913043453
2023-03-23T07:58:05.468Z,25.437290969899667
2023-03-23T08:04:26.471Z,36.03397993311039
2023-03-23T08:10:48.053Z,29.256555183946485
2023-03-23T08:17:08.909Z,18.55628762541805
2023-03-23T08:23:29.879Z,22.860100334448152
2023-03-23T08:29:50.709Z,27.064113712374585
2023-03-23T08:36:11.845Z,12.761404682274243
2023-03-23T08:42:33.380Z,41.32013377926424
2023-03-23T08:52:16.767Z,78.94739130434785
2023-03-23T09:02:03.301Z,55.304481605351164
2023-03-23T09:17:41.510Z,31.906856187290973
2023-03-23T09:30:23.095Z,64.49364548494982
2023-03-23T09:36:44.020Z,56.56053511705679
2023-03-23T09:43:05.335Z,69.03066889632106
2023-03-23T09:49:27.800Z,61.215785953177246
2023-03-23T09:55:50.104Z,72.49314381270905
2023-03-23T10:02:11.648Z,163.368160535117
2023-03-23T10:08:32.967Z,145.1521070234115
2023-03-23T10:14:53.893Z,113.33919732441474
2023-03-23T10:22:22.849Z,190.2533779264214
2023-03-23T10:28:43.471Z,112.75488294314376
2023-03-23T10:40:38.001Z,194.42153846153857
2023-03-23T10:46:58.782Z,124.89518394648837
2023-03-23T10:53:20.098Z,97.48397993311039
2023-03-23T11:00:53.686Z,163.13605351170565
2023-03-23T11:13:59.016Z,130.5350836120402
2023-03-23T11:24:48.527Z,124.72849498327761
2023-03-23T11:35:13.770Z,58.847826086956495
2023-03-23T11:41:37.389Z,166.35026755852851
2023-03-23T11:47:58.353Z,345.9027759197323
2023-03-23T11:56:48.324Z,269.50227424749164
2023-03-23T12:08:13.616Z,239.28280936454834
2023-03-23T12:14:38.344Z,311.7674581939798
2023-03-23T12:20:59.573Z,181.24260869565222
2023-03-23T12:32:44.554Z,396.6529431438127
2023-03-23T12:44:23.791Z,183.51441471571914
2023-03-23T12:50:45.604Z,308.6444816053513
2023-03-23T12:57:07.215Z,351.76535117056847
2023-03-23T13:03:28.756Z,253.45290969899673
2023-03-23T13:09:50.434Z,324.3863210702341
2023-03-23T13:16:49.588Z,430.98665551839446
2023-03-23T13:23:11.279Z,373.3495986622074
2023-03-23T13:37:14.497Z,68.82361204013382
2023-03-23T13:43:35.767Z,19.237424749163882
2023-03-23T13:49:57.360Z,12.190301003344484
2023-03-23T13:56:18.559Z,16.960334448160538
2023-03-23T14:07:01.854Z,7.084916387959868
2023-03-23T14:13:23.702Z,5.077224080267561
2023-03-23T14:20:04.818Z,35.35411371237461
2023-03-23T14:26:25.772Z,45.41662207357865
2023-03-23T14:32:48.987Z,81.43732441471569
2023-03-23T14:39:10.572Z,35.2566220735786
2023-03-23T14:45:32.466Z,37.25852842809367
2023-03-23T14:51:54.071Z,53.27752508361208
2023-03-23T14:58:15.888Z,55.33183946488293
2023-03-23T15:04:37.925Z,51.99334448160536
2023-03-23T15:10:59.691Z,30.531471571906366
2023-03-23T15:21:51.066Z,26.568561872909687
2023-03-23T15:28:35.767Z,36.95698996655519
2023-03-23T15:40:35.548Z,38.178461538461534
2023-03-23T15:58:23.039Z,35.28535117056853
2023-03-23T16:05:04.190Z,52.96789297658867
2023-03-23T16:11:25.851Z,41.58408026755855
2023-03-23T16:17:47.046Z,26.778060200668904
2023-03-23T16:24:08.096Z,21.274113712374575
2023-03-23T16:40:39.220Z,23.851973244147167
2023-03-23T16:47:00.080Z,24.328795986622048
2023-03-23T17:02:16.141Z,9.428862876254179
2023-03-23T17:15:03.720Z,11.74511705685618
2023-03-23T17:21:24.991Z,4.438929765886289
2023-03-23T17:27:46.062Z,1.704347826086956
2023-03-23T17:34:07.663Z,0.44919732441471555
2023-03-23T17:40:26.651Z,0.0
2023-03-23T17:46:45.963Z,0.0
2023-03-23T17:53:05.682Z,0.0
2023-03-23T17:59:24.620Z,0.0
2023-03-23T18:05:43.885Z,0.0
2023-03-23T18:12:04.135Z,0.0
2023-03-23T18:18:28.952Z,0.0
2023-03-23T18:24:47.582Z,0.0
2023-03-23T18:31:07.287Z,0.0
2023-03-23T18:37:27.186Z,0.0
2023-03-23T18:43:47.741Z,0.0
2023-03-23T18:51:55.836Z,0.0
2023-03-23T18:58:14.739Z,0.0
2023-03-23T19:04:33.325Z,0.0
2023-03-23T19:10:51.766Z,0.0
2023-03-23T19:21:26.367Z,0.0
2023-03-23T19:29:38.246Z,0.0
2023-03-23T19:36:09.193Z,0.0
2023-03-23T19:42:33.197Z,0.0
2023-03-23T19:48:53.123Z,0.0
2023-03-23T19:59:50.648Z,0.0
2023-03-23T20:11:00.109Z,0.0
2023-03-23T20:21:06.716Z,0.0
2023-03-23T20:27:27.055Z,0.0
2023-03-23T20:33:46.064Z,0.0
2023-03-23T20:40:06.072Z,0.0
2023-03-23T20:57:26.771Z,0.0
2023-03-23T21:09:39.666Z,0.0
2023-03-23T21:19:45.918Z,0.0
2023-03-23T21:32:25.865Z,0.0
2023-03-23T21:38:44.876Z,0.0
2023-03-23T21:45:04.857Z,0.0
2023-03-23T21:51:25.351Z,0.0
2023-03-23T21:57:43.825Z,0.0
2023-03-23T22:13:56.532Z,0.0
2023-03-23T22:20:16.472Z,0.0
2023-03-23T22:26:35.530Z,0.0
2023-03-23T22:32:55.014Z,0.0
2023-03-23T22:39:13.902Z,0.0
2023-03-23T22:45:32.479Z,0.0
2023-03-23T22:51:51.327Z,0.0
2023-03-23T22:58:09.505Z,0.0
2023-03-23T23:04:28.988Z,0.0
2023-03-23T23:13:12.486Z,0.0
2023-03-23T23:19:30.879Z,0.0
2023-03-23T23:25:50.435Z,0.0
2023-03-23T23:32:09.801Z,0.0
2023-03-23T23:43:25.515Z,0.0
2023-03-23T23:49:44.905Z,0.0
2023-03-23T23:56:03.846Z,0.0
